Time;durP1;ratioP1;P1;durP2;ratioP2;P2;SDS_P1;SDS_P2;PMS_P1;PMS_P2;Temp;Humidity;BMP_temperature;BMP_pressure;BME280_temperature;BME280_humidity;BME280_pressure;Samples;Min_cycle;Max_cycle;Signal;HPM_P1;HPM_P2
2023/03/24 00:03:04;;;;;;;14.05;7.35;;;;;;;13.46;45.80;99503.41;7659109;32;37920;-87
2023/03/24 00:07:22;;;;;;;19.40;8.88;;;;;;;13.33;46.52;99499.50;7659151;32;37080;-87
2023/03/24 00:11:40;;;;;;;13.73;8.13;;;;;;;13.31;46.59;99504.47;7659176;32;40129;-87
2023/03/24 00:15:56;;;;;;;15.75;7.95;;;;;;;13.36;46.39;99491.78;7658497;32;40846;-86
2023/03/24 00:20:15;;;;;;;19.15;9.02;;;;;;;13.33;47.09;99498.66;7658383;32;37754;-87
2023/03/24 00:24:32;;;;;;;17.15;8.13;;;;;;;13.19;46.95;99503.22;7658956;32;36885;-87
2023/03/24 00:28:48;;;;;;;18.23;9.00;;;;;;;12.98;48.40;99497.25;7658799;32;40156;-87
2023/03/24 00:33:05;;;;;;;15.20;9.23;;;;;;;12.94;48.21;99500.56;7658507;32;39943;-87
2023/03/24 00:37:22;;;;;;;19.33;9.48;;;;;;;13.23;47.00;99491.41;7658641;32;38437;-87
2023/03/24 00:41:39;;;;;;;17.45;8.32;;;;;;;13.30;46.65;99488.31;7658377;32;37058;-87
2023/03/24 00:46:00;;;;;;;20.75;9.63;;;;;;;13.31;46.47;99468.88;7658670;32;39363;-86
2023/03/24 00:50:20;;;;;;;15.85;8.25;;;;;;;13.30;46.12;99456.25;7658561;32;40034;-86
2023/03/24 00:54:37;;;;;;;13.93;8.13;;;;;;;13.50;45.59;99460.63;7658477;32;37816;-87
2023/03/24 00:58:56;;;;;;;13.88;7.95;;;;;;;13.01;47.45;99469.28;7658530;32;38241;-87
2023/03/24 01:03:13;;;;;;;16.27;8.25;;;;;;;13.15;46.94;99459.22;7658484;32;39284;-87
2023/03/24 01:07:30;;;;;;;21.00;8.60;;;;;;;13.21;46.84;99459.94;7658437;32;39976;-86
2023/03/24 01:11:46;;;;;;;16.67;8.30;;;;;;;13.03;47.15;99462.41;7657386;32;37901;-86
2023/03/24 01:16:03;;;;;;;14.05;7.95;;;;;;;12.91;47.65;99453.84;7658412;32;37368;-86
2023/03/24 01:20:21;;;;;;;18.50;7.60;;;;;;;12.99;47.21;99439.50;7658376;32;39381;-74
2023/03/24 01:24:38;;;;;;;14.40;8.23;;;;;;;13.07;47.25;99438.84;7658260;32;39885;-84
2023/03/24 01:28:55;;;;;;;16.80;8.95;;;;;;;13.06;47.83;99428.97;7658102;32;39154;-86
2023/03/24 01:33:11;;;;;;;15.85;8.75;;;;;;;13.17;47.32;99439.78;7656874;32;37668;-87
2023/03/24 01:37:27;;;;;;;15.30;8.95;;;;;;;12.78;48.61;99437.03;7657887;32;39415;-87
2023/03/24 01:41:44;;;;;;;18.33;9.07;;;;;;;12.79;48.95;99435.13;7657873;32;40004;-88
2023/03/24 01:46:02;;;;;;;17.52;9.32;;;;;;;12.53;49.39;99429.19;7657799;32;38173;-87
2023/03/24 01:50:19;;;;;;;20.10;9.40;;;;;;;12.68;49.02;99433.66;7657961;32;36143;-87
2023/03/24 01:54:43;;;;;;;16.02;8.63;;;;;;;12.58;48.61;99429.13;7656545;32;39898;-86
2023/03/24 01:59:02;;;;;;;22.25;9.00;;;;;;;12.75;48.21;99434.91;7656608;32;39720;-86
2023/03/24 02:03:22;;;;;;;26.20;9.50;;;;;;;12.98;47.14;99426.91;7657406;32;37863;-87
2023/03/24 02:07:51;;;;;;;24.08;9.05;;;;;;;12.97;46.82;99425.31;7657399;32;37902;-87
2023/03/24 02:12:08;;;;;;;13.82;8.48;;;;;;;12.89;47.30;99418.56;7630189;32;39403;-87
2023/03/24 02:17:15;;;;;;;15.30;8.65;;;;;;;12.90;47.42;99408.41;7630963;32;39901;-86
2023/03/24 02:21:55;;;;;;;19.62;9.57;;;;;;;12.93;47.63;99408.63;7611642;32;37603;-88
2023/03/24 02:26:20;;;;;;;18.52;9.35;;;;;;;12.73;48.11;99414.44;7631018;32;37933;-87
2023/03/24 02:31:02;;;;;;;17.73;9.23;;;;;;;12.81;48.12;99411.00;7649697;32;39910;-88
2023/03/24 02:35:45;;;;;;;15.00;8.35;;;;;;;12.61;48.33;99406.66;7656755;32;40808;-87
2023/03/24 02:40:25;;;;;;;20.57;10.00;;;;;;;12.73;48.10;99404.28;7612060;32;37575;-87
2023/03/24 02:44:47;;;;;;;15.50;9.15;;;;;;;12.64;48.37;99403.34;7620588;32;38331;-88
2023/03/24 02:49:10;;;;;;;19.08;9.73;;;;;;;12.63;48.35;99407.16;7620772;32;39935;-88
2023/03/24 02:53:49;;;;;;;17.20;9.82;;;;;;;12.54;49.21;99392.53;7633767;32;40243;-88
2023/03/24 02:58:13;;;;;;;16.45;9.85;;;;;;;12.43;49.79;99380.91;7658014;32;37973;-88
2023/03/24 03:02:35;;;;;;;17.87;9.75;;;;;;;12.38;50.14;99389.19;7658663;32;37073;-87
2023/03/24 03:06:56;;;;;;;17.42;9.65;;;;;;;12.36;50.11;99383.19;7658459;32;39396;-87
2023/03/24 03:11:14;;;;;;;20.45;10.55;;;;;;;12.24;49.98;99374.63;7659676;32;39969;-86
2023/03/24 03:15:42;;;;;;;21.23;9.77;;;;;;;12.30;50.19;99379.72;7646150;32;37635;-86
2023/03/24 03:20:15;;;;;;;21.05;10.45;;;;;;;12.20;50.63;99383.37;7658572;32;37011;-87
2023/03/24 03:24:38;;;;;;;21.77;10.27;;;;;;;12.23;49.91;99379.28;7659415;32;39830;-86
2023/03/24 03:28:58;;;;;;;18.60;10.07;;;;;;;12.24;49.65;99371.88;7658426;32;40862;-87
2023/03/24 03:33:24;;;;;;;18.50;9.93;;;;;;;12.23;49.68;99373.81;7658220;32;37895;-87
2023/03/24 03:38:06;;;;;;;16.10;9.30;;;;;;;12.13;49.87;99379.41;7659274;32;38270;-87
2023/03/24 03:42:22;;;;;;;18.23;9.50;;;;;;;12.22;49.58;99377.63;7659408;32;39944;-87
2023/03/24 03:46:39;;;;;;;18.52;10.10;;;;;;;12.31;49.14;99384.06;7658254;32;39827;-86
2023/03/24 03:50:56;;;;;;;15.50;9.18;;;;;;;12.10;48.97;99371.78;7659104;32;37842;-86
2023/03/24 03:55:29;;;;;;;20.42;10.50;;;;;;;12.21;48.75;99359.59;7657629;32;37902;-87
2023/03/24 03:59:46;;;;;;;17.20;9.18;;;;;;;12.06;50.74;99373.47;7659289;32;39315;-87
2023/03/24 04:04:25;;;;;;;16.65;10.02;;;;;;;12.02;50.69;99374.06;7645491;32;40037;-88
2023/03/24 04:08:55;;;;;;;19.95;11.50;;;;;;;11.92;50.75;99376.91;7658509;32;37626;-87
2023/03/24 04:14:01;;;;;;;20.58;11.52;;;;;;;12.03;49.53;99363.94;7657915;32;37644;-86
2023/03/24 04:18:32;;;;;;;19.25;11.10;;;;;;;12.00;49.23;99365.34;7608999;32;39337;-87
2023/03/24 04:22:52;;;;;;;19.62;10.93;;;;;;;12.12;49.05;99372.28;7632566;32;40733;-87
2023/03/24 04:27:37;;;;;;;18.42;12.00;;;;;;;11.75;50.34;99371.06;7633052;32;37659;-87
2023/03/24 04:32:01;;;;;;;20.60;10.82;;;;;;;11.82;49.97;99371.53;7643999;32;37280;-87
2023/03/24 04:36:42;;;;;;;17.83;10.00;;;;;;;11.88;50.14;99378.53;7657654;32;39180;-87
2023/03/24 04:41:00;;;;;;;21.65;10.80;;;;;;;11.76;51.04;99381.69;7657530;32;39926;-88
2023/03/24 04:45:16;;;;;;;19.30;11.38;;;;;;;11.43;52.19;99372.47;7658585;32;38077;-88
2023/03/24 04:49:39;;;;;;;20.37;11.23;;;;;;;11.71;51.26;99372.72;7657400;32;37163;-87
2023/03/24 04:53:56;;;;;;;20.15;11.27;;;;;;;11.71;51.00;99370.00;7658632;32;39472;-87
2023/03/24 04:58:12;;;;;;;17.65;10.48;;;;;;;11.81;50.81;99356.22;7658520;32;40877;-87
2023/03/24 05:02:28;;;;;;;17.37;10.10;;;;;;;11.79;50.97;99361.19;7658082;32;38825;-86
2023/03/24 05:06:45;;;;;;;15.88;10.15;;;;;;;11.49;52.38;99376.78;7658398;32;36901;-89
2023/03/24 05:11:02;;;;;;;19.52;10.50;;;;;;;11.70;51.95;99374.66;7658169;32;39124;-87
2023/03/24 05:15:18;;;;;;;21.92;11.12;;;;;;;11.81;51.57;99373.44;7658042;32;39924;-86
2023/03/24 05:19:36;;;;;;;18.75;10.15;;;;;;;11.52;52.59;99378.09;7658357;32;37998;-87
2023/03/24 05:23:52;;;;;;;15.85;9.90;;;;;;;11.72;52.39;99382.56;7658151;32;37115;-87
2023/03/24 05:28:09;;;;;;;17.25;10.00;;;;;;;11.89;52.00;99366.53;7658275;32;40076;-87
2023/03/24 05:32:26;;;;;;;18.95;10.80;;;;;;;11.80;52.52;99384.66;7657452;32;39644;-86
2023/03/24 05:36:42;;;;;;;18.62;10.27;;;;;;;11.99;52.42;99384.75;7657637;32;38674;-87
2023/03/24 05:40:59;;;;;;;16.75;9.70;;;;;;;12.20;51.84;99390.78;7657833;32;38266;-87
2023/03/24 05:45:16;;;;;;;17.80;10.70;;;;;;;11.77;53.38;99382.50;7657950;32;40181;-88
2023/03/24 05:49:32;;;;;;;16.87;10.95;;;;;;;12.06;52.80;99384.41;7657900;32;40023;-87
2023/03/24 05:53:50;;;;;;;18.27;10.48;;;;;;;12.06;51.96;99390.69;7656559;32;38085;-88
2023/03/24 05:58:07;;;;;;;27.65;11.88;;;;;;;12.13;52.02;99407.53;7657732;32;37293;-88
2023/03/24 06:02:24;;;;;;;21.83;12.18;;;;;;;11.97;52.31;99409.62;7657324;32;39430;-87
2023/03/24 06:06:44;;;;;;;26.08;11.30;;;;;;;12.20;51.43;99407.19;7657460;32;39967;-89
2023/03/24 06:11:04;;;;;;;22.83;11.07;;;;;;;12.42;51.12;99409.38;7657394;32;38747;-88
2023/03/24 06:15:21;;;;;;;18.67;11.15;;;;;;;12.45;51.65;99407.97;7657359;32;38017;-88
2023/03/24 06:19:39;;;;;;;20.10;11.70;;;;;;;12.47;51.44;99408.47;7655397;32;39490;-86
2023/03/24 06:23:57;;;;;;;19.12;11.27;;;;;;;12.69;50.65;99396.97;7657241;32;40800;-87
2023/03/24 06:28:13;;;;;;;21.10;12.27;;;;;;;12.30;51.45;99401.59;7656752;32;38030;-86
2023/03/24 06:32:30;;;;;;;23.98;12.45;;;;;;;12.29;51.80;99405.41;7656362;32;37090;-72
2023/03/24 06:36:46;;;;;;;23.85;12.52;;;;;;;12.24;53.56;99419.16;7656990;32;40130;-77
2023/03/24 06:41:04;;;;;;;21.83;12.32;;;;;;;12.61;53.34;99409.41;7642733;32;40193;-84
2023/03/24 06:45:25;;;;;;;21.00;12.70;;;;;;;12.67;51.14;99418.34;7656688;32;38032;-87
2023/03/24 06:49:41;;;;;;;24.40;12.73;;;;;;;12.77;51.05;99416.25;7654849;32;37993;-83
2023/03/24 06:53:57;;;;;;;22.58;12.73;;;;;;;13.25;49.32;99395.31;7649110;32;39211;-87
2023/03/24 06:58:14;;;;;;;21.87;12.45;;;;;;;13.63;49.31;99393.28;7619052;32;39849;-84
2023/03/24 07:02:34;;;;;;;22.23;12.27;;;;;;;13.61;48.68;99392.00;7655491;32;37908;-84
2023/03/24 07:06:52;;;;;;;21.90;12.40;;;;;;;14.01;48.20;99384.09;7655757;32;37755;-86
2023/03/24 07:11:28;;;;;;;20.45;11.23;;;;;;;13.94;48.27;99378.22;7655684;32;40455;-81
2023/03/24 07:15:45;;;;;;;24.12;11.50;;;;;;;14.38;45.82;99374.81;7655850;32;39643;-80
2023/03/24 07:20:07;;;;;;;27.37;17.33;;;;;;;14.30;45.16;99369.25;7655580;32;38069;-80
2023/03/24 07:24:24;;;;;;;18.60;10.52;;;;;;;14.79;44.10;99362.97;7655090;32;37428;-80
2023/03/24 07:28:40;;;;;;;20.75;11.00;;;;;;;14.93;43.68;99362.91;7655177;32;39500;-81
2023/03/24 07:32:56;;;;;;;18.90;11.02;;;;;;;15.33;42.67;99356.72;7657283;32;40040;-80
2023/03/24 07:37:13;;;;;;;16.33;10.68;;;;;;;15.43;42.14;99350.16;7659005;32;37440;-80
2023/03/24 07:41:29;;;;;;;17.80;10.70;;;;;;;15.80;41.84;99351.66;7658946;32;37781;-80
2023/03/24 07:45:45;;;;;;;17.37;10.45;;;;;;;15.64;42.00;99345.72;7659070;32;39205;-81
2023/03/24 07:50:04;;;;;;;18.27;10.68;;;;;;;15.98;41.15;99341.53;7659004;32;40004;-81
2023/03/24 07:54:21;;;;;;;16.75;10.85;;;;;;;16.30;40.70;99331.28;7659421;32;37763;-81
2023/03/24 07:58:37;;;;;;;18.65;10.88;;;;;;;16.02;40.65;99308.72;7655410;32;38788;-81
2023/03/24 08:02:55;;;;;;;21.52;10.88;;;;;;;16.11;40.72;99312.31;7657354;32;39373;-80
2023/03/24 08:07:12;;;;;;;18.33;11.10;;;;;;;16.58;40.04;99292.44;7644644;32;40784;-80
2023/03/24 08:11:33;;;;;;;18.98;11.23;;;;;;;16.81;39.16;99291.13;7658479;32;37991;-80
2023/03/24 08:15:52;;;;;;;24.05;14.77;;;;;;;16.69;39.46;99286.28;7658727;32;37267;-81
2023/03/24 08:20:16;;;;;;;18.83;11.23;;;;;;;16.73;39.13;99291.97;7658147;32;38216;-81
2023/03/24 08:24:35;;;;;;;19.27;11.77;;;;;;;16.86;39.31;99281.91;7657190;32;39735;-79
2023/03/24 08:28:52;;;;;;;21.65;10.80;;;;;;;17.12;39.28;99278.31;7630465;32;38835;-80
2023/03/24 08:33:11;;;;;;;22.62;12.10;;;;;;;17.35;39.01;99276.13;7631950;32;38179;-77
2023/03/24 08:37:30;;;;;;;19.85;11.93;;;;;;;17.54;38.68;99273.78;7650661;32;40093;-80
2023/03/24 08:41:49;;;;;;;19.12;11.68;;;;;;;17.58;38.75;99263.72;7657786;32;40628;-80
2023/03/24 08:46:07;;;;;;;15.40;9.75;;;;;;;17.59;38.29;99259.00;7656306;32;37982;-80
2023/03/24 08:50:31;;;;;;;17.17;10.85;;;;;;;17.85;38.54;99250.62;7655080;32;36876;-80
2023/03/24 08:54:47;;;;;;;19.80;11.07;;;;;;;18.32;37.57;99257.94;7656509;32;39424;-80
2023/03/24 08:59:05;;;;;;;20.58;10.13;;;;;;;18.64;37.02;99256.34;7657457;32;40801;-80
2023/03/24 09:03:22;;;;;;;13.15;8.25;;;;;;;18.84;36.19;99254.75;7657221;32;38847;-81
2023/03/24 09:07:39;;;;;;;17.37;10.25;;;;;;;19.10;35.66;99248.94;7657137;32;37648;-81
2023/03/24 09:11:57;;;;;;;18.77;10.20;;;;;;;19.27;34.78;99247.16;7644252;32;39410;-80
2023/03/24 09:16:14;;;;;;;19.52;9.75;;;;;;;19.58;34.94;99246.59;7658701;32;39876;-80
2023/03/24 09:20:30;;;;;;;19.48;9.65;;;;;;;20.09;35.06;99243.44;7658002;32;38006;-80
2023/03/24 09:24:49;;;;;;;15.52;8.93;;;;;;;20.49;33.93;99241.84;7657297;32;35995;-81
2023/03/24 09:29:05;;;;;;;18.73;8.75;;;;;;;20.65;33.72;99247.50;7657624;32;39219;-80
2023/03/24 09:33:22;;;;;;;15.55;8.93;;;;;;;21.11;33.11;99242.38;7630624;32;39890;-80
2023/03/24 09:37:39;;;;;;;15.57;8.88;;;;;;;21.40;32.42;99230.06;7657162;32;37564;-80
2023/03/24 09:41:55;;;;;;;13.30;8.93;;;;;;;21.39;32.50;99236.78;7651269;32;37208;-80
2023/03/24 09:46:30;;;;;;;17.92;8.65;;;;;;;21.64;32.16;99226.31;7656656;32;39184;-81
2023/03/24 09:51:30;;;;;;;13.82;9.05;;;;;;;21.47;32.31;99218.38;7645357;32;40791;-81
2023/03/24 09:55:47;;;;;;;13.25;7.45;;;;;;;22.19;31.09;99200.59;7608989;32;38055;-78
2023/03/24 10:00:16;;;;;;;14.38;7.35;;;;;;;22.13;30.32;99200.87;7642311;32;38154;-83
2023/03/24 10:04:33;;;;;;;13.85;7.72;;;;;;;22.44;28.77;99196.38;7657089;32;39124;-81
2023/03/24 10:09:21;;;;;;;12.95;7.20;;;;;;;22.38;28.95;99197.03;7655863;32;40023;-81
2023/03/24 10:13:59;;;;;;;13.55;6.18;;;;;;;23.18;27.02;99184.28;7656372;32;37865;-81
2023/03/24 10:18:42;;;;;;;18.95;7.47;;;;;;;23.12;26.22;99182.97;7656169;32;37155;-76
2023/03/24 10:23:07;;;;;;;11.80;6.00;;;;;;;22.99;25.64;99176.75;7657300;32;40199;-82
2023/03/24 10:27:46;;;;;;;11.65;6.00;;;;;;;23.21;25.05;99172.38;7657243;32;40764;-81
2023/03/24 10:32:13;;;;;;;11.50;5.80;;;;;;;22.95;26.87;99169.53;7657166;32;38705;-82
2023/03/24 10:36:32;;;;;;;14.73;5.57;;;;;;;23.31;26.73;99170.16;7656545;32;38022;-81
2023/03/24 10:40:51;;;;;;;12.23;5.87;;;;;;;23.93;24.48;99145.66;7656629;32;39586;-81
2023/03/24 10:45:40;;;;;;;11.38;5.32;;;;;;;23.81;24.10;99159.81;7655092;32;39908;-81
2023/03/24 10:50:04;;;;;;;18.77;5.68;;;;;;;22.85;26.22;99157.88;7656406;32;38749;-81
2023/03/24 10:54:31;;;;;;;10.13;5.57;;;;;;;23.31;25.24;99164.59;7656374;32;37070;-82
2023/03/24 10:58:51;;;;;;;10.20;5.35;;;;;;;22.84;24.97;99158.22;7655159;32;40081;-80
2023/03/24 11:03:22;;;;;;;14.05;5.62;;;;;;;23.06;25.31;99159.44;7655773;32;39738;-82
2023/03/24 11:07:43;;;;;;;13.80;5.82;;;;;;;22.87;25.20;99163.84;7659877;32;37923;-81
2023/03/24 11:12:19;;;;;;;12.07;5.97;;;;;;;22.87;25.54;99158.28;7658781;32;37148;-81
2023/03/24 11:16:41;;;;;;;13.57;5.53;;;;;;;23.16;24.83;99149.66;7657485;32;39410;-81
2023/03/24 11:21:02;;;;;;;12.52;5.00;;;;;;;22.64;26.64;99158.25;7658587;32;40445;-82
2023/03/24 11:25:31;;;;;;;14.20;5.25;;;;;;;22.88;26.02;99154.31;7658203;32;37919;-82
2023/03/24 11:29:54;;;;;;;10.15;4.57;;;;;;;23.00;25.76;99145.00;7630626;32;37364;-80
2023/03/24 11:34:24;;;;;;;11.60;5.55;;;;;;;23.53;25.47;99133.16;7657867;32;39295;-81
2023/03/24 11:38:43;;;;;;;14.80;6.10;;;;;;;24.29;24.15;99117.47;7658203;32;40146;-82
2023/03/24 11:43:01;;;;;;;10.43;5.07;;;;;;;24.64;23.72;99110.69;7646329;32;37554;-82
2023/03/24 11:47:37;;;;;;;13.15;5.45;;;;;;;24.52;24.54;99111.72;7645876;32;37118;-82
2023/03/24 11:51:54;;;;;;;10.68;5.20;;;;;;;24.45;23.86;99092.16;7633070;32;40123;-81
2023/03/24 11:56:24;;;;;;;9.50;5.22;;;;;;;24.29;24.67;99100.75;7633057;32;39911;-81
2023/03/24 12:01:00;;;;;;;11.20;5.03;;;;;;;24.70;24.51;99082.09;7633044;32;38959;-81
2023/03/24 12:05:23;;;;;;;13.75;5.20;;;;;;;24.53;24.38;99077.91;7633087;32;37174;-81
2023/03/24 12:10:01;;;;;;;11.63;5.15;;;;;;;25.17;23.54;99071.31;7632940;32;39267;-81
2023/03/24 12:14:36;;;;;;;10.23;4.00;;;;;;;25.58;22.72;99059.22;7632663;32;39744;-81
2023/03/24 12:18:58;;;;;;;9.95;4.30;;;;;;;25.06;23.46;99067.62;7632663;32;37906;-81
2023/03/24 12:23:40;;;;;;;9.87;4.50;;;;;;;24.93;23.58;99056.00;7619816;32;37124;-81
2023/03/24 12:28:08;;;;;;;8.60;3.80;;;;;;;25.04;23.55;99047.69;7625112;32;40001;-81
2023/03/24 12:32:37;;;;;;;9.65;4.12;;;;;;;25.60;22.85;99037.31;7632324;32;39936;-81
2023/03/24 12:37:37;;;;;;;8.38;3.95;;;;;;;25.59;23.09;99030.91;7623875;32;37830;-83
2023/03/24 12:42:14;;;;;;;11.45;5.20;;;;;;;25.60;22.76;99026.16;7657749;32;37681;-82
2023/03/24 12:46:45;;;;;;;7.95;3.85;;;;;;;26.00;21.79;99018.72;7657701;32;39521;-80
2023/03/24 12:51:31;;;;;;;11.00;3.87;;;;;;;26.73;22.91;99010.06;7656089;32;39318;-82
2023/03/24 12:56:01;;;;;;;10.27;3.75;;;;;;;26.39;21.33;99010.44;7656241;32;37843;-82
2023/03/24 13:00:35;;;;;;;9.48;3.85;;;;;;;25.97;21.74;99005.56;7655442;32;37148;-83
2023/03/24 13:04:56;;;;;;;10.32;4.00;;;;;;;25.42;22.56;98995.34;7658444;32;39381;-82
2023/03/24 13:09:52;;;;;;;8.40;3.80;;;;;;;24.70;23.13;98998.47;7643324;32;40055;-83
2023/03/24 13:14:14;;;;;;;9.23;3.97;;;;;;;25.15;23.08;98990.03;7629368;32;38672;-83
2023/03/24 13:18:38;;;;;;;23.02;4.68;;;;;;;25.60;22.08;98987.06;7644196;32;38007;-83
2023/03/24 13:22:58;;;;;;;7.78;3.60;;;;;;;25.65;22.46;98978.31;7657057;32;39397;-83
2023/03/24 13:27:25;;;;;;;8.02;2.80;;;;;;;24.63;23.52;98980.88;7655602;32;39872;-82
2023/03/24 13:31:55;;;;;;;8.10;3.33;;;;;;;23.94;24.42;98979.44;7656345;32;38027;-82
2023/03/24 13:36:41;;;;;;;4.93;2.85;;;;;;;23.35;24.50;98984.69;7640231;32;37006;-82
2023/03/24 13:45:24;;;;;;;6.43;2.37;;;;;;;22.80;25.28;98972.00;7640912;32;41094;-83
2023/03/24 13:49:42;;;;;;;6.70;2.70;;;;;;;22.72;25.08;98967.50;7630541;32;38218;-83
2023/03/24 13:54:20;;;;;;;3.90;2.37;;;;;;;21.93;26.06;98969.72;7630485;32;37037;-83
2023/03/24 13:58:48;;;;;;;6.22;2.75;;;;;;;22.42;26.05;98965.47;7630649;32;39428;-81
2023/03/24 14:03:04;;;;;;;6.40;2.58;;;;;;;22.17;26.02;98964.19;7630251;32;39975;-82
2023/03/24 14:07:36;;;;;;;3.95;2.42;;;;;;;22.25;25.71;98971.47;7630736;32;37817;-82
2023/03/24 14:11:55;;;;;;;7.15;2.60;;;;;;;21.73;26.17;98963.41;7631219;32;37588;-80
2023/03/24 14:16:41;;;;;;;4.30;2.25;;;;;;;22.27;26.26;98955.25;7631051;32;39904;-78
2023/03/24 14:21:03;;;;;;;4.30;2.10;;;;;;;21.83;27.01;98950.09;7640284;32;40786;-82
2023/03/24 14:25:27;;;;;;;4.80;2.30;;;;;;;22.34;25.97;98935.97;7641909;32;38613;-82
2023/03/24 14:29:53;;;;;;;7.87;2.30;;;;;;;22.23;26.49;98940.50;7640678;32;36999;-82
2023/03/24 14:34:19;;;;;;;4.20;2.33;;;;;;;22.33;26.43;98939.91;7650658;32;39254;-82
2023/03/24 14:38:40;;;;;;;5.72;2.40;;;;;;;22.09;26.59;98930.78;7655992;32;39670;-82
2023/03/24 14:43:02;;;;;;;4.97;2.22;;;;;;;22.52;26.52;98930.69;7658263;32;38067;-82
2023/03/24 14:47:27;;;;;;;4.07;2.20;;;;;;;22.36;25.49;98930.06;7658676;32;37947;-77
2023/03/24 14:51:52;;;;;;;7.65;2.40;;;;;;;22.35;25.78;98932.00;7657621;32;40237;-82
2023/03/24 14:56:15;;;;;;;7.32;2.10;;;;;;;22.43;26.02;98911.50;7659479;32;40063;-83
2023/03/24 15:00:46;;;;;;;4.65;2.30;;;;;;;22.64;25.57;98899.91;7659882;32;38882;-80
2023/03/24 15:05:29;;;;;;;3.45;2.22;;;;;;;22.99;25.21;98904.37;7658531;32;36831;-81
2023/03/24 15:09:50;;;;;;;7.87;2.25;;;;;;;22.71;25.79;98904.00;7659771;32;39086;-83
2023/03/24 15:14:17;;;;;;;8.65;2.40;;;;;;;22.50;25.34;98892.19;7659261;32;40695;-82
2023/03/24 15:18:34;;;;;;;7.30;2.30;;;;;;;22.80;25.34;98891.44;7658833;32;38584;-84
2023/03/24 15:22:53;;;;;;;9.90;2.83;;;;;;;23.15;24.99;98886.75;7658145;32;37936;-83
2023/03/24 15:27:27;;;;;;;5.07;2.40;;;;;;;22.73;25.54;98891.31;7659280;32;39434;-79
2023/03/24 15:31:44;;;;;;;5.07;2.47;;;;;;;23.13;24.89;98886.31;7659315;32;39980;-79
2023/03/24 15:36:01;;;;;;;3.97;2.47;;;;;;;22.70;25.35;98880.97;7659193;32;37981;-79
2023/03/24 15:40:28;;;;;;;5.12;2.50;;;;;;;22.98;25.39;98871.41;7659182;32;37042;-79
2023/03/24 15:44:44;;;;;;;4.90;2.53;;;;;;;22.49;25.80;98868.38;7658712;32;39151;-79
2023/03/24 15:49:03;;;;;;;9.02;2.50;;;;;;;22.53;26.47;98870.41;7654421;32;39138;-76
2023/03/24 15:53:19;;;;;;;4.95;2.75;;;;;;;22.59;26.28;98866.13;7655616;32;37571;-77
2023/03/24 15:57:40;;;;;;;6.35;2.87;;;;;;;22.31;26.68;98862.53;7658288;32;38151;-78
2023/03/24 16:01:56;;;;;;;7.00;2.90;;;;;;;22.56;26.90;98870.47;7658097;32;40046;-82
2023/03/24 16:06:24;;;;;;;11.15;3.10;;;;;;;22.73;26.79;98863.53;7657992;32;40061;-82
2023/03/24 16:10:42;;;;;;;8.93;2.83;;;;;;;22.72;27.13;98866.72;7657763;32;38626;-80
2023/03/24 16:14:58;;;;;;;5.45;2.72;;;;;;;22.77;26.32;98863.59;7644666;32;37004;-82
2023/03/24 16:19:14;;;;;;;6.78;2.87;;;;;;;21.94;27.45;98862.34;7658224;32;39395;-81
2023/03/24 16:23:31;;;;;;;4.70;2.55;;;;;;;21.61;27.80;98860.97;7657778;32;40104;-82
2023/03/24 16:27:47;;;;;;;9.60;2.60;;;;;;;22.02;27.62;98857.69;7657756;32;37585;-81
2023/03/24 16:32:04;;;;;;;5.78;2.37;;;;;;;21.96;27.66;98859.97;7658660;32;36854;-81
2023/03/24 16:36:25;;;;;;;6.12;2.75;;;;;;;22.09;27.48;98855.84;7662802;32;40152;-82
2023/03/24 16:40:45;;;;;;;7.93;2.53;;;;;;;22.03;27.46;98848.19;7658050;32;40635;-81
2023/03/24 16:45:02;;;;;;;5.30;2.58;;;;;;;21.91;27.89;98851.97;7644082;32;37971;-81
2023/03/24 16:49:19;;;;;;;8.00;3.00;;;;;;;21.78;27.82;98847.78;7657825;32;37084;-80
2023/03/24 16:53:35;;;;;;;5.53;2.60;;;;;;;21.47;28.32;98855.13;7656919;32;39926;-81
2023/03/24 16:57:52;;;;;;;4.22;2.58;;;;;;;21.84;27.84;98851.84;7655770;32;40403;-81
2023/03/24 17:02:09;;;;;;;6.10;2.58;;;;;;;21.66;28.17;98863.44;7656446;32;38729;-81
2023/03/24 17:06:27;;;;;;;11.77;3.53;;;;;;;21.38;28.77;98861.69;7656204;32;36830;-82
2023/03/24 17:10:44;;;;;;;6.93;3.50;;;;;;;21.64;28.50;98854.66;7657938;32;39049;-82
2023/03/24 17:15:01;;;;;;;7.45;3.72;;;;;;;21.87;27.95;98856.63;7644491;32;39387;-83
2023/03/24 17:19:21;;;;;;;9.52;3.53;;;;;;;22.10;28.01;98849.09;7657960;32;36959;-82
2023/03/24 17:23:38;;;;;;;10.15;3.28;;;;;;;21.86;27.77;98855.06;7657728;32;37082;-82
2023/03/24 17:27:56;;;;;;;7.57;3.37;;;;;;;21.75;28.03;98855.66;7657942;32;40133;-82
2023/03/24 17:32:12;;;;;;;7.87;3.47;;;;;;;21.64;28.19;98851.88;7657937;32;40900;-81
2023/03/24 17:36:29;;;;;;;7.40;3.70;;;;;;;21.69;28.24;98854.34;7657015;32;37742;-82
2023/03/24 17:40:45;;;;;;;10.93;5.72;;;;;;;22.00;27.82;98852.50;7657626;32;37062;-81
2023/03/24 17:45:06;;;;;;;12.85;6.43;;;;;;;21.85;28.32;98843.16;7657574;32;39493;-81
2023/03/24 17:49:23;;;;;;;10.73;5.87;;;;;;;21.64;29.46;98853.88;7656869;32;39881;-81
2023/03/24 17:53:39;;;;;;;11.73;4.68;;;;;;;21.43;29.64;98848.72;7643521;32;37569;-80
2023/03/24 17:57:55;;;;;;;11.15;5.15;;;;;;;21.39;28.82;98841.13;7656359;32;37759;-81
2023/03/24 18:02:13;;;;;;;8.82;3.83;;;;;;;21.17;28.87;98839.12;7656211;32;40087;-80
2023/03/24 18:06:29;;;;;;;8.00;3.70;;;;;;;21.29;28.53;98833.41;7656246;32;39726;-80
2023/03/24 18:10:46;;;;;;;15.10;4.03;;;;;;;21.24;29.26;98841.22;7647963;32;37888;-81
2023/03/24 18:15:04;;;;;;;6.87;3.70;;;;;;;21.27;29.14;98841.28;7630157;32;37245;-82
2023/03/24 18:19:20;;;;;;;5.65;3.25;;;;;;;21.24;29.19;98838.44;7656808;32;38645;-82
2023/03/24 18:23:37;;;;;;;9.90;3.62;;;;;;;21.11;29.86;98848.88;7656950;32;40916;-81
2023/03/24 18:27:55;;;;;;;8.90;3.42;;;;;;;21.19;29.03;98845.88;7654528;32;37689;-81
2023/03/24 18:32:11;;;;;;;7.55;3.95;;;;;;;21.15;29.11;98855.31;7656349;32;37134;-81
2023/03/24 18:36:28;;;;;;;6.50;3.75;;;;;;;21.11;29.17;98865.50;7620930;32;39638;-80
2023/03/24 18:40:44;;;;;;;7.90;3.80;;;;;;;21.00;29.50;98863.31;7653842;32;40777;-80
2023/03/24 18:45:00;;;;;;;8.35;3.83;;;;;;;21.08;29.48;98863.47;7656208;32;38810;-77
2023/03/24 18:49:16;;;;;;;8.77;3.97;;;;;;;20.49;31.05;98866.16;7656691;32;37355;-81
2023/03/24 18:53:33;;;;;;;6.32;3.65;;;;;;;20.81;30.01;98868.84;7654984;32;39357;-85
2023/03/24 18:57:50;;;;;;;6.03;3.22;;;;;;;20.81;30.03;98874.38;7656173;32;40161;-85
2023/03/24 19:02:06;;;;;;;6.00;3.45;;;;;;;20.71;30.74;98866.66;7655828;32;37842;-86
2023/03/24 19:06:25;;;;;;;7.03;3.33;;;;;;;20.62;31.03;98872.41;7653593;32;37246;-86
2023/03/24 19:10:42;;;;;;;7.32;3.12;;;;;;;20.68;31.18;98865.41;7654689;32;39137;-86
2023/03/24 19:14:58;;;;;;;10.73;3.37;;;;;;;20.44;31.22;98867.22;7654438;32;40692;-86
2023/03/24 19:19:17;;;;;;;8.27;3.37;;;;;;;20.52;31.36;98857.09;7655315;32;37960;-86
2023/03/24 19:23:34;;;;;;;8.95;3.58;;;;;;;20.47;31.54;98860.16;7655330;32;36934;-85
2023/03/24 19:27:50;;;;;;;39.67;17.00;;;;;;;20.36;32.31;98867.44;7658733;32;40112;-86
2023/03/24 19:32:06;;;;;;;35.17;16.15;;;;;;;20.31;32.17;98876.00;7659419;32;40883;-86
2023/03/24 19:36:25;;;;;;;18.35;9.15;;;;;;;20.11;33.26;98866.81;7658599;32;37965;-85
2023/03/24 19:40:41;;;;;;;14.20;7.03;;;;;;;19.97;33.68;98870.84;7659150;32;36137;-85
2023/03/24 19:44:57;;;;;;;15.73;7.37;;;;;;;19.83;34.54;98867.72;7659301;32;40210;-87
2023/03/24 19:49:15;;;;;;;13.65;7.28;;;;;;;19.68;35.58;98869.31;7658816;32;39901;-86
2023/03/24 19:53:31;;;;;;;18.62;9.38;;;;;;;19.69;36.42;98893.81;7658182;32;37906;-84
2023/03/24 19:57:47;;;;;;;20.05;9.18;;;;;;;19.02;38.70;98899.06;7659332;32;37821;-85
2023/03/24 20:02:03;;;;;;;18.08;9.15;;;;;;;18.84;39.30;98900.50;7659081;32;39187;-83
2023/03/24 20:06:20;;;;;;;18.50;9.25;;;;;;;18.64;39.65;98904.97;7659074;32;40838;-85
2023/03/24 20:10:38;;;;;;;17.02;9.43;;;;;;;18.60;39.69;98904.88;7658671;32;38694;-85
2023/03/24 20:14:55;;;;;;;19.60;9.07;;;;;;;18.06;40.43;98913.38;7659000;32;37325;-85
2023/03/24 20:19:11;;;;;;;17.27;9.90;;;;;;;18.26;40.05;98920.75;7658753;32;39887;-85
2023/03/24 20:23:28;;;;;;;16.48;9.48;;;;;;;18.18;40.35;98918.94;7658730;32;40955;-84